DTTD

Remada Air Base Airport

Remada, Tunisia
METAR DTTD 221700Z VRB02KT CAVOK 30/M01 Q1015
Observed Flight Rules
Apr-22 @ 17:00 UTC (an hour ago) Visual Flight Rules
Wind Visibility Clouds
Variable at 2 knots 10,000+ meters
  • Clear skies
Temperatures Readings
Current 30°C / 86°F
Dewpoint -1°C / 30°F
Humidity 13%
Altimeter 29.97" Hg
Pressure 1015 hPa
Elevation 301
METAR DTTD 221700Z VRB02KT CAVOK 30/M01 Q1015
Observed Flight Rules
Apr-22 @ 17:00 UTC
(an hour ago)
VFR
Wind Visibility
Variable at 2 knots 10,000+ meters
Clouds
  • Clear skies
Temperature Dewpoint
30°C / 86°F -1°C / 30°F
Humidity Altimeter Pressure
13% 29.97" Hg 1015 hPa